sensor_id;sensor_type;location;lat;lon;timestamp;pressure;altitude;pressure_sealevel;temperature;humidity
11413;BME280;5762;43.256;26.960;2024-02-16T00:01:14;101350.30;;;6.07;100.00
11413;BME280;5762;43.256;26.960;2024-02-16T00:03:43;101352.39;;;6.04;100.00
11413;BME280;5762;43.256;26.960;2024-02-16T00:06:11;101357.17;;;6.02;100.00
11413;BME280;5762;43.256;26.960;2024-02-16T00:08:39;101354.72;;;6.01;100.00
11413;BME280;5762;43.256;26.960;2024-02-16T00:11:07;101357.70;;;6.02;100.00
11413;BME280;5762;43.256;26.960;2024-02-16T00:13:36;101357.41;;;6.01;100.00
11413;BME280;5762;43.256;26.960;2024-02-16T00:16:04;101357.62;;;5.99;100.00
11413;BME280;5762;43.256;26.960;2024-02-16T00:18:34;101355.23;;;6.00;100.00
11413;BME280;5762;43.256;26.960;2024-02-16T00:21:03;101360.31;;;5.99;100.00
11413;BME280;5762;43.256;26.960;2024-02-16T00:23:32;101364.28;;;5.97;100.00
11413;BME280;5762;43.256;26.960;2024-02-16T00:26:01;101350.02;;;5.96;100.00
11413;BME280;5762;43.256;26.960;2024-02-16T00:28:30;101358.23;;;5.92;100.00
11413;BME280;5762;43.256;26.960;2024-02-16T00:31:00;101359.58;;;5.92;100.00
11413;BME280;5762;43.256;26.960;2024-02-16T00:33:29;101357.34;;;5.89;100.00
11413;BME280;5762;43.256;26.960;2024-02-16T00:35:57;101355.48;;;5.90;100.00
11413;BME280;5762;43.256;26.960;2024-02-16T00:38:26;101358.09;;;5.87;100.00
11413;BME280;5762;43.256;26.960;2024-02-16T00:40:55;101343.77;;;5.84;100.00
11413;BME280;5762;43.256;26.960;2024-02-16T00:43:24;101350.27;;;5.86;100.00
11413;BME280;5762;43.256;26.960;2024-02-16T00:45:52;101348.84;;;5.83;100.00
11413;BME280;5762;43.256;26.960;2024-02-16T00:48:22;101347.95;;;5.80;100.00
11413;BME280;5762;43.256;26.960;2024-02-16T00:50:50;101352.51;;;5.80;100.00
11413;BME280;5762;43.256;26.960;2024-02-16T00:53:19;101359.45;;;5.78;100.00
11413;BME280;5762;43.256;26.960;2024-02-16T00:55:47;101364.83;;;5.78;100.00
11413;BME280;5762;43.256;26.960;2024-02-16T00:58:16;101343.92;;;5.80;100.00
11413;BME280;5762;43.256;26.960;2024-02-16T01:00:45;101328.48;;;5.76;100.00
11413;BME280;5762;43.256;26.960;2024-02-16T01:03:15;101351.84;;;5.75;100.00
11413;BME280;5762;43.256;26.960;2024-02-16T01:05:43;101348.11;;;5.76;100.00
11413;BME280;5762;43.256;26.960;2024-02-16T01:08:12;101347.22;;;5.73;100.00
11413;BME280;5762;43.256;26.960;2024-02-16T01:10:40;101337.06;;;5.75;100.00
11413;BME280;5762;43.256;26.960;2024-02-16T01:13:10;101340.64;;;5.78;100.00
11413;BME280;5762;43.256;26.960;2024-02-16T01:15:38;101337.81;;;5.73;100.00
11413;BME280;5762;43.256;26.960;2024-02-16T01:18:07;101338.04;;;5.71;100.00
11413;BME280;5762;43.256;26.960;2024-02-16T01:20:36;101344.01;;;5.73;100.00
11413;BME280;5762;43.256;26.960;2024-02-16T01:23:06;101349.31;;;5.71;100.00
11413;BME280;5762;43.256;26.960;2024-02-16T01:25:35;101350.66;;;5.71;100.00
11413;BME280;5762;43.256;26.960;2024-02-16T01:28:04;101352.81;;;5.71;100.00
11413;BME280;5762;43.256;26.960;2024-02-16T01:30:34;101350.72;;;5.73;100.00
11413;BME280;5762;43.256;26.960;2024-02-16T01:33:03;101347.37;;;5.69;100.00
11413;BME280;5762;43.256;26.960;2024-02-16T01:35:32;101353.94;;;5.73;100.00
11413;BME280;5762;43.256;26.960;2024-02-16T01:38:00;101357.37;;;5.71;100.00
11413;BME280;5762;43.256;26.960;2024-02-16T01:40:28;101361.17;;;5.72;100.00
11413;BME280;5762;43.256;26.960;2024-02-16T01:42:57;101353.04;;;5.70;100.00
11413;BME280;5762;43.256;26.960;2024-02-16T01:45:26;101359.61;;;5.74;100.00
11413;BME280;5762;43.256;26.960;2024-02-16T01:47:55;101353.56;;;5.69;100.00
11413;BME280;5762;43.256;26.960;2024-02-16T01:50:24;101360.65;;;5.73;100.00
11413;BME280;5762;43.256;26.960;2024-02-16T01:52:53;101359.98;;;5.68;100.00
11413;BME280;5762;43.256;26.960;2024-02-16T01:55:22;101366.17;;;5.69;100.00
11413;BME280;5762;43.256;26.960;2024-02-16T01:57:51;101358.72;;;5.62;100.00
11413;BME280;5762;43.256;26.960;2024-02-16T02:00:21;101370.05;;;5.64;100.00
11413;BME280;5762;43.256;26.960;2024-02-16T02:02:50;101372.66;;;5.61;100.00
11413;BME280;5762;43.256;26.960;2024-02-16T02:05:22;101379.91;;;5.61;100.00
11413;BME280;5762;43.256;26.960;2024-02-16T02:07:50;101383.04;;;5.67;100.00
11413;BME280;5762;43.256;26.960;2024-02-16T02:10:20;101378.34;;;5.62;100.00
11413;BME280;5762;43.256;26.960;2024-02-16T02:12:48;101381.47;;;5.59;100.00
11413;BME280;5762;43.256;26.960;2024-02-16T02:15:16;101382.22;;;5.57;100.00
11413;BME280;5762;43.256;26.960;2024-02-16T02:17:44;101379.53;;;5.57;100.00
11413;BME280;5762;43.256;26.960;2024-02-16T02:20:14;101389.16;;;5.56;100.00
11413;BME280;5762;43.256;26.960;2024-02-16T02:22:43;101394.08;;;5.59;100.00
11413;BME280;5762;43.256;26.960;2024-02-16T02:25:11;101393.19;;;5.56;100.00
11413;BME280;5762;43.256;26.960;2024-02-16T02:27:40;101396.47;;;5.58;100.00
11413;BME280;5762;43.256;26.960;2024-02-16T02:30:09;101408.73;;;5.54;100.00
11413;BME280;5762;43.256;26.960;2024-02-16T02:32:38;101414.10;;;5.54;100.00
11413;BME280;5762;43.256;26.960;2024-02-16T02:35:08;101411.41;;;5.54;100.00
11413;BME280;5762;43.256;26.960;2024-02-16T02:37:36;101416.78;;;5.54;100.00
11413;BME280;5762;43.256;26.960;2024-02-16T02:40:05;101422.38;;;5.52;100.00
11413;BME280;5762;43.256;26.960;2024-02-16T02:42:35;101425.88;;;5.53;100.00
11413;BME280;5762;43.256;26.960;2024-02-16T02:45:03;101426.11;;;5.51;100.00
11413;BME280;5762;43.256;26.960;2024-02-16T02:47:32;101432.08;;;5.53;100.00
11413;BME280;5762;43.256;26.960;2024-02-16T02:50:00;101439.90;;;5.46;100.00
11413;BME280;5762;43.256;26.960;2024-02-16T02:52:29;101432.66;;;5.46;100.00
11413;BME280;5762;43.256;26.960;2024-02-16T02:54:57;101434.45;;;5.43;100.00
11413;BME280;5762;43.256;26.960;2024-02-16T02:57:26;101448.91;;;5.42;100.00
11413;BME280;5762;43.256;26.960;2024-02-16T03:00:02;101437.14;;;5.43;100.00
11413;BME280;5762;43.256;26.960;2024-02-16T03:02:24;101444.89;;;5.42;100.00
11413;BME280;5762;43.256;26.960;2024-02-16T03:04:53;101442.87;;;5.37;100.00
11413;BME280;5762;43.256;26.960;2024-02-16T03:07:21;101449.72;;;5.33;100.00
11413;BME280;5762;43.256;26.960;2024-02-16T03:09:49;101446.87;;;5.28;100.00
11413;BME280;5762;43.256;26.960;2024-02-16T03:12:18;101455.01;;;5.31;100.00
11413;BME280;5762;43.256;26.960;2024-02-16T03:14:46;101457.61;;;5.28;100.00
11413;BME280;5762;43.256;26.960;2024-02-16T03:17:15;101456.95;;;5.33;100.00
11413;BME280;5762;43.256;26.960;2024-02-16T03:19:43;101457.17;;;5.31;100.00
11413;BME280;5762;43.256;26.960;2024-02-16T03:22:12;101449.56;;;5.28;100.00
11413;BME280;5762;43.256;26.960;2024-02-16T03:24:40;101445.53;;;5.28;100.00
11413;BME280;5762;43.256;26.960;2024-02-16T03:27:09;101445.97;;;5.25;100.00
11413;BME280;5762;43.256;26.960;2024-02-16T03:29:38;101445.97;;;5.25;100.00
11413;BME280;5762;43.256;26.960;2024-02-16T03:32:06;101445.45;;;5.26;100.00
11413;BME280;5762;43.256;26.960;2024-02-16T03:34:35;101447.09;;;5.27;100.00
11413;BME280;5762;43.256;26.960;2024-02-16T03:37:03;101449.86;;;5.29;100.00
11413;BME280;5762;43.256;26.960;2024-02-16T03:39:33;101450.16;;;5.30;100.00
11413;BME280;5762;43.256;26.960;2024-02-16T03:42:02;101452.47;;;5.27;100.00
11413;BME280;5762;43.256;26.960;2024-02-16T03:44:31;101452.38;;;5.24;100.00
11413;BME280;5762;43.256;26.960;2024-02-16T03:46:59;101455.67;;;5.26;100.00
11413;BME280;5762;43.256;26.960;2024-02-16T03:49:28;101465.06;;;5.26;100.00
11413;BME280;5762;43.256;26.960;2024-02-16T03:51:56;101471.77;;;5.26;100.00
11413;BME280;5762;43.256;26.960;2024-02-16T03:54:26;101466.33;;;5.24;100.00
11413;BME280;5762;43.256;26.960;2024-02-16T03:56:54;101472.22;;;5.23;100.00
11413;BME280;5762;43.256;26.960;2024-02-16T03:59:23;101472.08;;;5.18;100.00
11413;BME280;5762;43.256;26.960;2024-02-16T04:01:53;101477.75;;;5.19;100.00
11413;BME280;5762;43.256;26.960;2024-02-16T04:04:22;101483.39;;;5.20;100.00
11413;BME280;5762;43.256;26.960;2024-02-16T04:06:50;101482.73;;;5.16;100.00
11413;BME280;5762;43.256;26.960;2024-02-16T04:09:19;101489.74;;;5.17;100.00
11413;BME280;5762;43.256;26.960;2024-02-16T04:11:48;101491.61;;;5.16;100.00
11413;BME280;5762;43.256;26.960;2024-02-16T04:14:17;101493.25;;;5.17;100.00
11413;BME280;5762;43.256;26.960;2024-02-16T04:16:45;101499.36;;;5.15;100.00
11413;BME280;5762;43.256;26.960;2024-02-16T04:19:13;101503.82;;;5.21;100.00
11413;BME280;5762;43.256;26.960;2024-02-16T04:21:42;101514.55;;;5.21;100.00
11413;BME280;5762;43.256;26.960;2024-02-16T04:24:10;101504.13;;;5.22;100.00
11413;BME280;5762;43.256;26.960;2024-02-16T04:26:40;101510.31;;;5.23;100.00
11413;BME280;5762;43.256;26.960;2024-02-16T04:29:08;101509.88;;;5.26;100.00
11413;BME280;5762;43.256;26.960;2024-02-16T04:31:38;101513.08;;;5.25;100.00
11413;BME280;5762;43.256;26.960;2024-02-16T04:34:06;101514.72;;;5.26;100.00
11413;BME280;5762;43.256;26.960;2024-02-16T04:36:35;101519.36;;;5.28;100.00
11413;BME280;5762;43.256;26.960;2024-02-16T04:39:03;101515.16;;;5.23;100.00
11413;BME280;5762;43.256;26.960;2024-02-16T04:41:32;101522.56;;;5.28;100.00
11413;BME280;5762;43.256;26.960;2024-02-16T04:44:01;101525.55;;;5.29;100.00
11413;BME280;5762;43.256;26.960;2024-02-16T04:46:29;101538.36;;;5.27;100.00
11413;BME280;5762;43.256;26.960;2024-02-16T04:48:57;101545.59;;;5.26;100.00
11413;BME280;5762;43.256;26.960;2024-02-16T04:51:26;101547.55;;;5.28;100.00
11413;BME280;5762;43.256;26.960;2024-02-16T04:53:55;101547.77;;;5.27;100.00
11413;BME280;5762;43.256;26.960;2024-02-16T04:56:24;101552.59;;;5.18;100.00
11413;BME280;5762;43.256;26.960;2024-02-16T04:58:53;101565.80;;;5.20;100.00
11413;BME280;5762;43.256;26.960;2024-02-16T05:01:22;101560.56;;;5.16;100.00
11413;BME280;5762;43.256;26.960;2024-02-16T05:03:51;101562.57;;;5.20;100.00
11413;BME280;5762;43.256;26.960;2024-02-16T05:06:20;101571.09;;;5.17;100.00
11413;BME280;5762;43.256;26.960;2024-02-16T05:08:49;101581.83;;;5.17;100.00
11413;BME280;5762;43.256;26.960;2024-02-16T05:11:19;101585.80;;;5.08;100.00
11413;BME280;5762;43.256;26.960;2024-02-16T05:13:48;101596.23;;;5.07;100.00
11413;BME280;5762;43.256;26.960;2024-02-16T05:16:19;101603.46;;;5.07;100.00
11413;BME280;5762;43.256;26.960;2024-02-16T05:18:47;101616.05;;;5.06;100.00
11413;BME280;5762;43.256;26.960;2024-02-16T05:21:16;101623.71;;;5.02;100.00
11413;BME280;5762;43.256;26.960;2024-02-16T05:23:44;101624.78;;;4.95;100.00
11413;BME280;5762;43.256;26.960;2024-02-16T05:26:13;101638.80;;;4.97;100.00
11413;BME280;5762;43.256;26.960;2024-02-16T05:28:41;101653.87;;;4.98;100.00
11413;BME280;5762;43.256;26.960;2024-02-16T05:31:13;101668.53;;;4.95;100.00
11413;BME280;5762;43.256;26.960;2024-02-16T05:33:48;101673.71;;;4.90;100.00
11413;BME280;5762;43.256;26.960;2024-02-16T05:36:17;101681.03;;;4.92;100.00
11413;BME280;5762;43.256;26.960;2024-02-16T05:38:47;101687.13;;;4.90;100.00
11413;BME280;5762;43.256;26.960;2024-02-16T05:41:16;101703.32;;;4.93;100.00
11413;BME280;5762;43.256;26.960;2024-02-16T05:43:44;101704.97;;;4.94;100.00
11413;BME280;5762;43.256;26.960;2024-02-16T05:46:16;101721.98;;;4.97;100.00
11413;BME280;5762;43.256;26.960;2024-02-16T05:48:45;101727.55;;;5.02;100.00
11413;BME280;5762;43.256;26.960;2024-02-16T05:51:14;101730.55;;;4.96;100.00
11413;BME280;5762;43.256;26.960;2024-02-16T05:53:42;101732.41;;;4.96;100.00
11413;BME280;5762;43.256;26.960;2024-02-16T05:56:11;101744.80;;;4.97;100.00
11413;BME280;5762;43.256;26.960;2024-02-16T05:58:39;101744.70;;;4.94;100.00
11413;BME280;5762;43.256;26.960;2024-02-16T06:01:07;101746.14;;;4.97;100.00
11413;BME280;5762;43.256;26.960;2024-02-16T06:03:35;101750.27;;;4.93;100.00
11413;BME280;5762;43.256;26.960;2024-02-16T06:06:04;101759.15;;;4.93;100.00
11413;BME280;5762;43.256;26.960;2024-02-16T06:08:33;101756.26;;;4.95;100.00
11413;BME280;5762;43.256;26.960;2024-02-16T06:11:01;101764.61;;;4.96;100.00
11413;BME280;5762;43.256;26.960;2024-02-16T06:13:29;101754.52;;;4.91;100.00
11413;BME280;5762;43.256;26.960;2024-02-16T06:15:58;101768.02;;;4.94;100.00
11413;BME280;5762;43.256;26.960;2024-02-16T06:18:28;101772.05;;;4.94;100.00
11413;BME280;5762;43.256;26.960;2024-02-16T06:20:56;101770.93;;;4.86;100.00
11413;BME280;5762;43.256;26.960;2024-02-16T06:23:24;101781.91;;;4.84;100.00
11413;BME280;5762;43.256;26.960;2024-02-16T06:25:52;101784.07;;;4.85;100.00
11413;BME280;5762;43.256;26.960;2024-02-16T06:28:21;101803.13;;;4.86;100.00
11413;BME280;5762;43.256;26.960;2024-02-16T06:30:50;101813.58;;;4.85;100.00
11413;BME280;5762;43.256;26.960;2024-02-16T06:33:18;101823.25;;;4.86;100.00
11413;BME280;5762;43.256;26.960;2024-02-16T06:35:46;101846.29;;;4.84;100.00
11413;BME280;5762;43.256;26.960;2024-02-16T06:38:15;101853.72;;;4.82;100.00
11413;BME280;5762;43.256;26.960;2024-02-16T06:40:43;101869.20;;;4.80;100.00
11413;BME280;5762;43.256;26.960;2024-02-16T06:43:12;101890.25;;;4.83;100.00
11413;BME280;5762;43.256;26.960;2024-02-16T06:45:40;101894.69;;;4.80;100.00
11413;BME280;5762;43.256;26.960;2024-02-16T06:48:09;101909.33;;;4.78;100.00
11413;BME280;5762;43.256;26.960;2024-02-16T06:50:38;101917.38;;;4.78;100.00
11413;BME280;5762;43.256;26.960;2024-02-16T06:53:06;101929.25;;;4.79;100.00
11413;BME280;5762;43.256;26.960;2024-02-16T06:55:35;101946.69;;;4.79;100.00
11413;BME280;5762;43.256;26.960;2024-02-16T06:58:03;101957.62;;;4.78;100.00
11413;BME280;5762;43.256;26.960;2024-02-16T07:00:32;101966.71;;;4.83;100.00
11413;BME280;5762;43.256;26.960;2024-02-16T07:03:00;101976.30;;;4.82;100.00
11413;BME280;5762;43.256;26.960;2024-02-16T07:05:28;101992.90;;;4.88;100.00
11413;BME280;5762;43.256;26.960;2024-02-16T07:07:57;102000.84;;;4.92;100.00
11413;BME280;5762;43.256;26.960;2024-02-16T07:10:25;102010.76;;;4.91;100.00
11413;BME280;5762;43.256;26.960;2024-02-16T07:12:53;102013.95;;;4.91;100.00
11413;BME280;5762;43.256;26.960;2024-02-16T07:15:23;102008.49;;;4.95;100.00
11413;BME280;5762;43.256;26.960;2024-02-16T07:17:52;102018.30;;;4.98;100.00
11413;BME280;5762;43.256;26.960;2024-02-16T07:20:20;102015.01;;;5.03;100.00
11413;BME280;5762;43.256;26.960;2024-02-16T07:22:49;102010.27;;;5.05;100.00
11413;BME280;5762;43.256;26.960;2024-02-16T07:25:17;102000.56;;;5.04;100.00
11413;BME280;5762;43.256;26.960;2024-02-16T07:27:45;101989.11;;;5.13;100.00
11413;BME280;5762;43.256;26.960;2024-02-16T07:30:13;101974.55;;;5.11;100.00
11413;BME280;5762;43.256;26.960;2024-02-16T07:32:42;101956.69;;;5.14;100.00
11413;BME280;5762;43.256;26.960;2024-02-16T07:35:10;101933.56;;;5.13;100.00
11413;BME280;5762;43.256;26.960;2024-02-16T07:37:40;101917.56;;;5.16;100.00
11413;BME280;5762;43.256;26.960;2024-02-16T07:40:09;101892.16;;;5.18;100.00
11413;BME280;5762;43.256;26.960;2024-02-16T07:42:40;101867.24;;;5.20;100.00
11413;BME280;5762;43.256;26.960;2024-02-16T07:45:08;101851.96;;;5.21;100.00
11413;BME280;5762;43.256;26.960;2024-02-16T07:47:40;101824.95;;;5.16;100.00
11413;BME280;5762;43.256;26.960;2024-02-16T07:50:07;101811.84;;;5.17;100.00
11413;BME280;5762;43.256;26.960;2024-02-16T07:52:35;101793.37;;;5.11;100.00
11413;BME280;5762;43.256;26.960;2024-02-16T07:55:04;101785.63;;;5.12;100.00
11413;BME280;5762;43.256;26.960;2024-02-16T07:57:32;101777.59;;;5.05;100.00
11413;BME280;5762;43.256;26.960;2024-02-16T08:00:00;101771.41;;;5.05;100.00
11413;BME280;5762;43.256;26.960;2024-02-16T08:02:28;101766.95;;;5.08;100.00
11413;BME280;5762;43.256;26.960;2024-02-16T08:04:57;101762.63;;;5.07;100.00
11413;BME280;5762;43.256;26.960;2024-02-16T08:07:26;101758.69;;;5.10;100.00
11413;BME280;5762;43.256;26.960;2024-02-16T08:09:55;101767.24;;;5.16;100.00
11413;BME280;5762;43.256;26.960;2024-02-16T08:12:24;101759.41;;;5.14;100.00
11413;BME280;5762;43.256;26.960;2024-02-16T08:14:52;101757.55;;;5.15;100.00
11413;BME280;5762;43.256;26.960;2024-02-16T08:17:20;101753.40;;;5.19;100.00
11413;BME280;5762;43.256;26.960;2024-02-16T08:19:53;101746.71;;;5.12;100.00
11413;BME280;5762;43.256;26.960;2024-02-16T08:22:22;101754.50;;;5.20;100.00
11413;BME280;5762;43.256;26.960;2024-02-16T08:24:50;101754.28;;;5.22;100.00
11413;BME280;5762;43.256;26.960;2024-02-16T08:27:19;101739.73;;;5.20;100.00
11413;BME280;5762;43.256;26.960;2024-02-16T08:29:47;101744.83;;;5.19;100.00
11413;BME280;5762;43.256;26.960;2024-02-16T08:32:15;101746.75;;;5.21;100.00
11413;BME280;5762;43.256;26.960;2024-02-16T08:34:45;101748.19;;;5.24;100.00
11413;BME280;5762;43.256;26.960;2024-02-16T08:37:15;101746.23;;;5.22;100.00
11413;BME280;5762;43.256;26.960;2024-02-16T08:39:43;101746.11;;;5.26;100.00
11413;BME280;5762;43.256;26.960;2024-02-16T08:42:11;101758.29;;;5.28;100.00
11413;BME280;5762;43.256;26.960;2024-02-16T08:44:40;101765.21;;;5.27;100.00
11413;BME280;5762;43.256;26.960;2024-02-16T08:47:08;101757.18;;;5.20;100.00
11413;BME280;5762;43.256;26.960;2024-02-16T08:49:37;101764.13;;;5.19;100.00
11413;BME280;5762;43.256;26.960;2024-02-16T08:52:07;101779.42;;;5.18;100.00
11413;BME280;5762;43.256;26.960;2024-02-16T08:54:35;101783.30;;;5.22;100.00
11413;BME280;5762;43.256;26.960;2024-02-16T08:57:03;101786.59;;;5.24;100.00
11413;BME280;5762;43.256;26.960;2024-02-16T08:59:32;101788.24;;;5.25;100.00
11413;BME280;5762;43.256;26.960;2024-02-16T09:02:00;101788.73;;;5.31;100.00
11413;BME280;5762;43.256;26.960;2024-02-16T09:04:29;101793.17;;;5.35;100.00
11413;BME280;5762;43.256;26.960;2024-02-16T09:06:58;101796.67;;;5.35;100.00
11413;BME280;5762;43.256;26.960;2024-02-16T09:09:28;101791.02;;;5.28;100.00
11413;BME280;5762;43.256;26.960;2024-02-16T09:11:56;101788.12;;;5.29;100.00
11413;BME280;5762;43.256;26.960;2024-02-16T09:14:25;101788.95;;;5.30;100.00
11413;BME280;5762;43.256;26.960;2024-02-16T09:16:53;101779.53;;;5.36;100.00
11413;BME280;5762;43.256;26.960;2024-02-16T09:19:22;101756.68;;;5.43;100.00
11413;BME280;5762;43.256;26.960;2024-02-16T09:21:51;101746.16;;;5.42;100.00
11413;BME280;5762;43.256;26.960;2024-02-16T09:24:19;101721.06;;;5.38;100.00
11413;BME280;5762;43.256;26.960;2024-02-16T09:26:47;101709.05;;;5.48;100.00
11413;BME280;5762;43.256;26.960;2024-02-16T09:29:16;101693.45;;;5.47;100.00
11413;BME280;5762;43.256;26.960;2024-02-16T09:31:44;101676.52;;;5.47;100.00
11413;BME280;5762;43.256;26.960;2024-02-16T09:34:12;101659.05;;;5.47;100.00
11413;BME280;5762;43.256;26.960;2024-02-16T09:36:42;101657.89;;;5.52;100.00
11413;BME280;5762;43.256;26.960;2024-02-16T09:39:10;101620.72;;;5.49;100.00
11413;BME280;5762;43.256;26.960;2024-02-16T09:41:41;101609.55;;;5.52;100.00
11413;BME280;5762;43.256;26.960;2024-02-16T09:44:08;101602.01;;;5.51;100.00
11413;BME280;5762;43.256;26.960;2024-02-16T09:46:37;101586.68;;;5.43;100.00
11413;BME280;5762;43.256;26.960;2024-02-16T09:49:05;101585.29;;;5.49;100.00
11413;BME280;5762;43.256;26.960;2024-02-16T09:51:38;101589.06;;;5.42;100.00
11413;BME280;5762;43.256;26.960;2024-02-16T09:54:06;101578.87;;;5.50;100.00
11413;BME280;5762;43.256;26.960;2024-02-16T09:56:34;101570.92;;;5.37;100.00
11413;BME280;5762;43.256;26.960;2024-02-16T09:59:03;101578.98;;;5.37;100.00
11413;BME280;5762;43.256;26.960;2024-02-16T10:01:31;101580.48;;;5.42;100.00
11413;BME280;5762;43.256;26.960;2024-02-16T10:04:06;101588.98;;;5.39;100.00
11413;BME280;5762;43.256;26.960;2024-02-16T10:06:46;101582.39;;;5.51;100.00
11413;BME280;5762;43.256;26.960;2024-02-16T10:09:24;101583.52;;;5.52;100.00
11413;BME280;5762;43.256;26.960;2024-02-16T10:11:53;101572.17;;;5.59;100.00
11413;BME280;5762;43.256;26.960;2024-02-16T10:14:21;101558.52;;;5.61;100.00
11413;BME280;5762;43.256;26.960;2024-02-16T10:17:00;101558.38;;;5.65;100.00
11413;BME280;5762;43.256;26.960;2024-02-16T10:19:29;101545.27;;;5.75;100.00
11413;BME280;5762;43.256;26.960;2024-02-16T10:22:07;101534.66;;;5.71;100.00
11413;BME280;5762;43.256;26.960;2024-02-16T10:24:35;101524.46;;;5.80;100.00
11413;BME280;5762;43.256;26.960;2024-02-16T10:27:05;101517.30;;;5.83;100.00
11413;BME280;5762;43.256;26.960;2024-02-16T10:29:33;101500.66;;;5.83;100.00
11413;BME280;5762;43.256;26.960;2024-02-16T10:32:02;101493.49;;;5.86;100.00
11413;BME280;5762;43.256;26.960;2024-02-16T10:34:30;101489.02;;;5.98;100.00
11413;BME280;5762;43.256;26.960;2024-02-16T10:36:59;101486.41;;;6.01;100.00
11413;BME280;5762;43.256;26.960;2024-02-16T10:39:28;101473.87;;;6.04;100.00
11413;BME280;5762;43.256;26.960;2024-02-16T10:41:56;101450.65;;;6.00;100.00
11413;BME280;5762;43.256;26.960;2024-02-16T10:44:27;101452.44;;;5.97;100.00
11413;BME280;5762;43.256;26.960;2024-02-16T10:46:56;101461.17;;;6.02;100.00
11413;BME280;5762;43.256;26.960;2024-02-16T10:49:25;101456.40;;;5.95;100.00
11413;BME280;5762;43.256;26.960;2024-02-16T10:51:54;101459.91;;;5.95;100.00
11413;BME280;5762;43.256;26.960;2024-02-16T10:54:25;101460.95;;;5.85;100.00
11413;BME280;5762;43.256;26.960;2024-02-16T10:56:53;101457.21;;;5.77;100.00
11413;BME280;5762;43.256;26.960;2024-02-16T10:59:21;101464.91;;;5.83;100.00
11413;BME280;5762;43.256;26.960;2024-02-16T11:01:59;101463.41;;;5.87;100.00
11413;BME280;5762;43.256;26.960;2024-02-16T11:04:21;101475.88;;;5.90;100.00
11413;BME280;5762;43.256;26.960;2024-02-16T11:06:53;101467.07;;;5.83;100.00
11413;BME280;5762;43.256;26.960;2024-02-16T11:09:36;101451.17;;;5.82;100.00
11413;BME280;5762;43.256;26.960;2024-02-16T11:12:01;101445.34;;;5.85;100.00
11413;BME280;5762;43.256;26.960;2024-02-16T11:14:36;101438.78;;;5.90;100.00
11413;BME280;5762;43.256;26.960;2024-02-16T11:17:07;101432.81;;;5.88;100.00
11413;BME280;5762;43.256;26.960;2024-02-16T11:19:43;101424.67;;;6.03;100.00
11413;BME280;5762;43.256;26.960;2024-02-16T11:22:09;101411.08;;;5.98;100.00
11413;BME280;5762;43.256;26.960;2024-02-16T11:24:42;101400.25;;;6.05;100.00
11413;BME280;5762;43.256;26.960;2024-02-16T11:27:07;101393.16;;;6.01;100.00
11413;BME280;5762;43.256;26.960;2024-02-16T11:29:36;101388.22;;;6.08;100.00
11413;BME280;5762;43.256;26.960;2024-02-16T11:32:05;101381.20;;;6.07;100.00
11413;BME280;5762;43.256;26.960;2024-02-16T11:34:34;101371.58;;;6.08;100.00
11413;BME280;5762;43.256;26.960;2024-02-16T11:37:03;101375.08;;;6.09;100.00
11413;BME280;5762;43.256;26.960;2024-02-16T11:39:32;101373.78;;;6.20;100.00
11413;BME280;5762;43.256;26.960;2024-02-16T11:42:04;101372.98;;;6.11;100.00
11413;BME280;5762;43.256;26.960;2024-02-16T11:44:33;101370.75;;;6.08;100.00
11413;BME280;5762;43.256;26.960;2024-02-16T11:47:02;101367.55;;;6.08;100.00
11413;BME280;5762;43.256;26.960;2024-02-16T11:49:30;101363.89;;;6.02;100.00
11413;BME280;5762;43.256;26.960;2024-02-16T11:52:01;101374.58;;;6.00;100.00
11413;BME280;5762;43.256;26.960;2024-02-16T11:54:31;101383.01;;;6.03;100.00
11413;BME280;5762;43.256;26.960;2024-02-16T11:56:59;101378.30;;;6.08;100.00
11413;BME280;5762;43.256;26.960;2024-02-16T11:59:28;101378.20;;;6.15;100.00
11413;BME280;5762;43.256;26.960;2024-02-16T12:01:57;101370.73;;;6.17;100.00
11413;BME280;5762;43.256;26.960;2024-02-16T12:04:26;101378.73;;;6.14;100.00
11413;BME280;5762;43.256;26.960;2024-02-16T12:06:55;101364.17;;;6.13;100.00
11413;BME280;5762;43.256;26.960;2024-02-16T12:09:24;101351.03;;;6.14;100.00
11413;BME280;5762;43.256;26.960;2024-02-16T12:11:54;101352.76;;;6.08;100.00
11413;BME280;5762;43.256;26.960;2024-02-16T12:14:23;101345.67;;;6.04;100.00
11413;BME280;5762;43.256;26.960;2024-02-16T12:16:51;101363.67;;;6.04;100.00
11413;BME280;5762;43.256;26.960;2024-02-16T12:19:19;101368.81;;;6.05;100.00
11413;BME280;5762;43.256;26.960;2024-02-16T12:21:49;101372.69;;;6.10;100.00
11413;BME280;5762;43.256;26.960;2024-02-16T12:24:21;101390.33;;;5.96;100.00
11413;BME280;5762;43.256;26.960;2024-02-16T12:26:49;101384.89;;;5.94;100.00
11413;BME280;5762;43.256;26.960;2024-02-16T12:29:17;101394.59;;;5.86;100.00
11413;BME280;5762;43.256;26.960;2024-02-16T12:31:45;101401.31;;;5.86;100.00
11413;BME280;5762;43.256;26.960;2024-02-16T12:34:14;101403.40;;;5.93;100.00
11413;BME280;5762;43.256;26.960;2024-02-16T12:36:42;101397.27;;;5.95;100.00
11413;BME280;5762;43.256;26.960;2024-02-16T12:39:10;101392.57;;;5.99;100.00
11413;BME280;5762;43.256;26.960;2024-02-16T12:41:39;101389.81;;;5.97;100.00
11413;BME280;5762;43.256;26.960;2024-02-16T12:44:07;101373.53;;;6.01;100.00
11413;BME280;5762;43.256;26.960;2024-02-16T12:46:35;101376.66;;;6.07;100.00
11413;BME280;5762;43.256;26.960;2024-02-16T12:49:04;101369.11;;;6.07;100.00
11413;BME280;5762;43.256;26.960;2024-02-16T12:51:33;101359.70;;;6.07;100.00
11413;BME280;5762;43.256;26.960;2024-02-16T12:54:01;101364.88;;;5.99;100.00
11413;BME280;5762;43.256;26.960;2024-02-16T12:56:29;101355.31;;;6.03;100.00
11413;BME280;5762;43.256;26.960;2024-02-16T12:58:58;101355.39;;;5.96;100.00